createdAt,value
2023-04-11T00:04:23.129Z,4.70
2023-04-11T00:09:26.855Z,4.70
2023-04-11T00:14:32.563Z,4.88
2023-04-11T00:19:38.069Z,3.55
2023-04-11T00:29:45.025Z,4.72
2023-04-11T00:34:50.115Z,4.35
2023-04-11T00:39:56.076Z,4.13
2023-04-11T00:45:00.060Z,3.78
2023-04-11T00:50:05.166Z,3.95
2023-04-11T00:55:09.324Z,4.13
2023-04-11T01:00:14.070Z,4.25
2023-04-11T01:05:20.163Z,4.27
2023-04-11T01:10:25.127Z,4.13
2023-04-11T01:15:28.893Z,3.88
2023-04-11T01:20:34.660Z,4.00
2023-04-11T01:25:39.362Z,3.53
2023-04-11T01:30:43.354Z,3.72
2023-04-11T01:35:47.651Z,3.22
2023-04-11T01:40:52.945Z,4.30
2023-04-11T01:51:00.136Z,4.45
2023-04-11T01:56:05.797Z,4.00
2023-04-11T02:01:09.658Z,4.57
2023-04-11T02:06:13.015Z,4.60
2023-04-11T02:11:17.683Z,4.60
2023-04-11T02:16:26.151Z,4.07
2023-04-11T02:21:29.791Z,5.80
2023-04-11T02:26:36.094Z,5.50
2023-04-11T02:31:40.209Z,5.35
2023-04-11T02:36:44.243Z,5.90
2023-04-11T02:41:49.294Z,5.43
2023-04-11T02:46:52.477Z,5.40
2023-04-11T02:51:55.723Z,6.22
2023-04-11T02:57:03.710Z,5.75
2023-04-11T03:02:07.546Z,5.75
2023-04-11T03:07:12.580Z,6.78
2023-04-11T03:12:20.087Z,5.93
2023-04-11T03:17:30.485Z,5.97
2023-04-11T03:22:34.296Z,6.13
2023-04-11T03:27:39.247Z,5.80
2023-04-11T03:32:43.873Z,6.10
2023-04-11T03:37:47.189Z,6.13
2023-04-11T03:42:52.378Z,6.55
2023-04-11T03:48:00.140Z,6.28
2023-04-11T03:53:11.491Z,5.60
2023-04-11T03:58:19.204Z,5.40
2023-04-11T04:03:23.016Z,6.63
2023-04-11T04:08:26.946Z,5.60
2023-04-11T04:13:31.577Z,5.20
2023-04-11T04:18:46.473Z,5.95
2023-04-11T04:23:50.804Z,5.78
2023-04-11T04:29:04.728Z,5.63
2023-04-11T04:34:24.582Z,5.45
2023-04-11T04:39:30.158Z,4.90
2023-04-11T04:44:35.852Z,5.63
2023-04-11T04:49:47.104Z,5.32
2023-04-11T04:54:52.362Z,5.43
2023-04-11T04:59:59.937Z,6.82
2023-04-11T05:05:04.374Z,5.70
2023-04-11T05:10:10.628Z,5.97
2023-04-11T05:15:18.124Z,6.80
2023-04-11T05:25:27.670Z,5.13
2023-04-11T05:35:37.592Z,5.38
2023-04-11T05:40:41.556Z,4.97
2023-04-11T05:45:48.258Z,6.53
2023-04-11T05:50:53.319Z,4.68
2023-04-11T05:55:56.993Z,5.07
2023-04-11T06:01:01.886Z,4.30
2023-04-11T06:06:05.727Z,4.83
2023-04-11T06:11:09.520Z,4.75
2023-04-11T06:16:14.648Z,4.63
2023-04-11T06:21:18.305Z,3.08
2023-04-11T06:26:22.051Z,2.60
2023-04-11T06:31:27.347Z,2.55
2023-04-11T06:36:32.049Z,2.53
2023-04-11T06:41:36.708Z,3.10
2023-04-11T06:46:41.712Z,2.40
2023-04-11T06:51:47.202Z,6.20
2023-04-11T06:56:50.735Z,2.08
2023-04-11T07:01:55.278Z,2.38
2023-04-11T07:06:58.578Z,2.35
2023-04-11T07:12:02.456Z,1.85
2023-04-11T07:17:07.019Z,1.30
2023-04-11T07:22:10.569Z,1.48
2023-04-11T07:27:14.248Z,1.42
2023-04-11T07:32:19.004Z,1.60
2023-04-11T07:37:22.732Z,1.30
2023-04-11T07:42:26.459Z,1.33
2023-04-11T07:47:31.531Z,1.63
2023-04-11T07:52:35.116Z,2.47
2023-04-11T07:57:38.698Z,1.70
2023-04-11T08:02:43.758Z,2.05
2023-04-11T08:07:47.446Z,1.65
2023-04-11T08:12:51.169Z,1.25
2023-04-11T08:17:57.187Z,0.90
2023-04-11T08:23:05.778Z,1.35
2023-04-11T08:28:11.480Z,1.00
2023-04-11T08:33:16.464Z,1.00
2023-04-11T08:38:20.340Z,1.17
2023-04-11T08:43:24.032Z,1.20
2023-04-11T08:48:29.457Z,1.20
2023-04-11T08:53:37.486Z,1.08
2023-04-11T08:58:43.472Z,1.58
2023-04-11T09:03:52.712Z,1.50
2023-04-11T09:08:56.211Z,1.10
2023-04-11T09:14:09.845Z,3.58
2023-04-11T09:19:25.288Z,1.65
2023-04-11T09:29:40.924Z,1.38
2023-04-11T09:34:45.922Z,1.10
2023-04-11T09:39:59.492Z,1.55
2023-04-11T09:45:04.494Z,1.85
2023-04-11T09:50:09.864Z,1.30
2023-04-11T09:55:14.924Z,1.40
2023-04-11T10:00:21.819Z,0.50
2023-04-11T10:05:28.711Z,0.80
2023-04-11T10:10:32.338Z,0.60
2023-04-11T10:15:35.614Z,0.63
2023-04-11T10:20:50.400Z,0.57
2023-04-11T10:25:56.348Z,0.63
2023-04-11T10:31:01.823Z,1.17
2023-04-11T10:36:10.543Z,1.05
2023-04-11T10:41:19.750Z,1.50
2023-04-11T10:46:24.697Z,1.00
2023-04-11T10:51:31.541Z,1.20
2023-04-11T10:56:56.667Z,1.60
2023-04-11T11:02:01.466Z,2.28
2023-04-11T11:07:08.124Z,1.60
2023-04-11T11:12:12.941Z,1.90
2023-04-11T11:17:18.032Z,1.53
2023-04-11T11:22:26.162Z,1.02
2023-04-11T11:27:29.938Z,0.60
2023-04-11T11:32:33.230Z,0.80
2023-04-11T11:37:38.190Z,0.80
2023-04-11T11:42:42.403Z,1.10
2023-04-11T11:47:47.051Z,1.27
2023-04-11T11:52:52.939Z,0.97
2023-04-11T11:58:00.475Z,1.42
2023-04-11T12:03:04.471Z,1.50
2023-04-11T12:08:09.726Z,1.67
2023-04-11T12:13:14.555Z,2.25
2023-04-11T12:18:21.149Z,1.40
2023-04-11T12:23:26.228Z,1.67
2023-04-11T12:28:29.778Z,2.00
2023-04-11T12:33:33.491Z,1.85
2023-04-11T12:38:38.615Z,1.27
2023-04-11T12:43:42.349Z,1.52
2023-04-11T12:48:46.055Z,1.40
2023-04-11T12:53:53.164Z,1.58
2023-04-11T12:58:57.063Z,1.55
2023-04-11T13:04:01.219Z,2.00
2023-04-11T13:14:29.486Z,1.42
2023-04-11T13:19:33.081Z,1.92
2023-04-11T13:24:37.971Z,1.52
2023-04-11T13:29:41.853Z,1.60
2023-04-11T13:34:45.092Z,1.70
2023-04-11T13:39:50.037Z,1.90
2023-04-11T13:44:53.248Z,1.80
2023-04-11T13:49:56.778Z,2.28
2023-04-11T13:55:01.445Z,1.60
2023-04-11T14:00:11.904Z,1.33
2023-04-11T14:05:15.282Z,2.25
2023-04-11T14:10:20.000Z,1.30
2023-04-11T14:15:23.576Z,1.27
2023-04-11T14:20:27.388Z,1.10
2023-04-11T14:25:32.549Z,1.90
2023-04-11T14:30:36.541Z,1.63
2023-04-11T14:35:40.115Z,0.70
2023-04-11T14:40:45.652Z,0.40
2023-04-11T14:45:49.319Z,0.68
2023-04-11T14:50:54.773Z,0.68
2023-04-11T14:55:59.614Z,0.65
2023-04-11T15:01:03.490Z,0.38
2023-04-11T15:06:07.609Z,0.95
2023-04-11T15:11:12.145Z,0.82
2023-04-11T15:16:15.954Z,0.50
2023-04-11T15:21:20.474Z,0.82
2023-04-11T15:26:25.762Z,0.77
2023-04-11T15:31:29.021Z,0.80
2023-04-11T15:36:32.549Z,0.82
2023-04-11T15:41:37.532Z,0.60
2023-04-11T15:46:40.994Z,1.20
2023-04-11T15:51:46.011Z,1.10
2023-04-11T15:56:50.746Z,0.98
2023-04-11T16:01:54.036Z,0.63
2023-04-11T16:06:57.541Z,0.55
2023-04-11T16:12:03.081Z,0.50
2023-04-11T16:17:06.651Z,0.68
2023-04-11T16:22:10.154Z,1.00
2023-04-11T16:27:14.927Z,1.15
2023-04-11T16:32:18.235Z,1.80
2023-04-11T16:37:22.091Z,2.05
2023-04-11T16:42:27.204Z,0.70
2023-04-11T16:47:30.934Z,0.90
2023-04-11T16:52:34.454Z,0.60
2023-04-11T16:57:39.394Z,0.80
2023-04-11T17:02:42.723Z,1.92
2023-04-11T17:07:46.481Z,1.50
2023-04-11T17:12:51.751Z,1.33
2023-04-11T17:17:55.019Z,1.23
2023-04-11T17:22:58.322Z,1.25
2023-04-11T17:28:03.129Z,1.20
2023-04-11T17:33:06.374Z,0.77
2023-04-11T17:38:09.661Z,0.93
2023-04-11T17:43:14.310Z,1.30
2023-04-11T17:48:18.788Z,1.05
2023-04-11T17:53:22.342Z,0.75
2023-04-11T17:58:27.333Z,0.75
2023-04-11T18:03:35.771Z,0.80
2023-04-11T18:08:50.559Z,1.15
2023-04-11T18:13:56.726Z,1.15
2023-04-11T18:19:01.282Z,1.35
2023-04-11T18:24:05.423Z,1.02
2023-04-11T18:29:10.131Z,1.30
2023-04-11T18:34:14.188Z,1.85
2023-04-11T18:39:18.264Z,1.27
2023-04-11T18:44:23.482Z,1.67
2023-04-11T18:49:27.492Z,0.82
2023-04-11T18:54:31.401Z,1.30
2023-04-11T18:59:40.861Z,1.48
2023-04-11T19:04:47.205Z,1.50
2023-04-11T19:09:51.076Z,1.40
2023-04-11T19:14:56.171Z,1.60
2023-04-11T19:20:02.035Z,1.73
2023-04-11T19:25:06.146Z,1.58
2023-04-11T19:30:13.620Z,2.08
2023-04-11T19:35:21.796Z,1.60
2023-04-11T19:40:25.094Z,1.40
2023-04-11T19:45:31.589Z,1.67
2023-04-11T19:50:35.822Z,1.50
2023-04-11T19:55:39.018Z,2.20
2023-04-11T20:00:43.649Z,1.58
2023-04-11T20:05:47.270Z,1.80
2023-04-11T20:10:52.026Z,1.17
2023-04-11T20:15:56.818Z,1.42
2023-04-11T20:21:00.195Z,1.07
2023-04-11T20:26:03.759Z,1.42
2023-04-11T20:31:09.162Z,1.90
2023-04-11T20:36:12.552Z,1.70
2023-04-11T20:41:18.997Z,1.90
2023-04-11T20:46:24.662Z,1.83
2023-04-11T20:51:28.137Z,1.42
2023-04-11T20:56:35.148Z,1.77
2023-04-11T21:01:40.639Z,1.58
2023-04-11T21:06:44.908Z,1.85
2023-04-11T21:11:48.220Z,1.40
2023-04-11T21:16:53.479Z,1.70
2023-04-11T21:21:57.319Z,2.15
2023-04-11T21:27:01.363Z,2.10
2023-04-11T21:32:06.583Z,2.28
2023-04-11T21:37:10.519Z,1.88
2023-04-11T21:42:13.800Z,1.95
2023-04-11T21:47:19.167Z,1.90
2023-04-11T21:52:22.903Z,1.93
2023-04-11T21:57:26.636Z,1.90
2023-04-11T22:02:31.930Z,2.35
2023-04-11T22:07:39.458Z,1.98
2023-04-11T22:12:45.919Z,2.03
2023-04-11T22:17:54.762Z,2.65
2023-04-11T22:22:58.183Z,2.78
2023-04-11T22:28:01.487Z,2.03
2023-04-11T22:33:06.199Z,2.35
2023-04-11T22:38:09.955Z,2.47
2023-04-11T22:43:13.267Z,1.95
2023-04-11T22:48:17.877Z,1.90
2023-04-11T22:53:21.166Z,2.20
2023-04-11T22:58:24.437Z,1.65
2023-04-11T23:03:30.037Z,2.10
2023-04-11T23:13:36.763Z,1.67
2023-04-11T23:18:41.375Z,1.80
2023-04-11T23:23:45.300Z,1.67
2023-04-11T23:28:48.908Z,2.13
2023-04-11T23:33:53.970Z,2.58
2023-04-11T23:38:58.364Z,2.22
2023-04-11T23:44:02.099Z,1.95
2023-04-11T23:49:07.104Z,2.08
2023-04-11T23:54:10.747Z,1.90
2023-04-11T23:59:14.357Z,2.45
